Archival Weather

Chicago O'Hare International

Chicago, Illinois (KORD)

Report from: Tuesday, December 13, 2022 7:51 AM CST
Current time: Monday, June 24, 2024 6:07 AM CDT

Current weather – Weather history – Daily summaries
Weather forecast

Temperature2.2°C (36.0°F)
Wind chill-2.2°C (28.0°F)
Dew point-2.2°C (28.0°F)
Winds 10 kts (5.1 m/s, 11.5 mph) East-Southeast (120°)
Visibility10 mi. (16.1 km)
Clouds Ceiling: Overcast 1,900 ft. (579 m)
Altimeter30.23 in.Hg (1024 mB)
Relative humidity73 %
Density altitude-1,848 ft. (-563 m)
Sea-level pressure102.4 kPa (1024 mB, 30.24 in.Hg)
Remarks Automated weather observing station with precipitation discriminator
Flight conditions Marginal Visual Meteorological Conditions
Raw dataKORD 131351Z 12010KT 10SM OVC019 02/M02 A3023 RMK AO2 SLP242 T00221022
An error has occurred. This application may no longer respond until reloaded. Reload 🗙